createdAt,value
2022-08-05T00:01:35.707Z,17.10
2022-08-05T00:04:15.390Z,17.40
2022-08-05T00:06:43.161Z,17.20
2022-08-05T00:09:13.194Z,17.20
2022-08-05T00:11:48.296Z,17.10
2022-08-05T00:14:17.042Z,17.00
2022-08-05T00:16:52.908Z,16.80
2022-08-05T00:19:24.945Z,16.80
2022-08-05T00:21:59.807Z,16.80
2022-08-05T00:24:31.033Z,17.10
2022-08-05T00:26:58.825Z,16.80
2022-08-05T00:29:26.144Z,17.10
2022-08-05T00:32:11.134Z,16.70
2022-08-05T00:34:54.613Z,16.90
2022-08-05T00:37:51.158Z,16.90
2022-08-05T00:40:14.427Z,16.80
2022-08-05T00:42:49.137Z,16.80
2022-08-05T00:45:16.720Z,16.90
2022-08-05T00:48:04.933Z,16.60
2022-08-05T00:50:32.166Z,16.70
2022-08-05T00:52:59.062Z,16.60
2022-08-05T00:55:42.351Z,16.80
2022-08-05T00:58:11.049Z,15.70
2022-08-05T01:00:39.531Z,16.90
2022-08-05T01:03:07.623Z,16.40
2022-08-05T01:05:35.163Z,16.40
2022-08-05T01:08:42.277Z,16.30
2022-08-05T01:10:54.046Z,16.50
2022-08-05T01:13:58.421Z,16.30
2022-08-05T01:16:27.690Z,16.20
2022-08-05T01:19:00.698Z,16.30
2022-08-05T01:21:42.506Z,16.20
2022-08-05T01:24:30.830Z,16.30
2022-08-05T01:27:22.161Z,16.30
2022-08-05T01:29:50.357Z,16.30
2022-08-05T01:32:20.865Z,16.20
2022-08-05T01:34:48.714Z,16.20
2022-08-05T01:37:20.205Z,16.90
2022-08-05T01:39:54.824Z,16.20
2022-08-05T01:42:26.552Z,16.30
2022-08-05T01:44:54.798Z,16.40
2022-08-05T01:47:22.177Z,16.60
2022-08-05T01:50:01.567Z,16.10
2022-08-05T01:52:29.701Z,16.50
2022-08-05T01:54:58.624Z,16.10
2022-08-05T01:58:12.661Z,16.00
2022-08-05T02:00:15.675Z,16.30
2022-08-05T02:02:46.472Z,16.00
2022-08-05T02:05:23.469Z,16.20
2022-08-05T02:08:00.006Z,16.10
2022-08-05T02:10:28.865Z,16.10
2022-08-05T02:13:05.117Z,16.30
2022-08-05T02:15:50.249Z,16.20
2022-08-05T02:18:34.883Z,16.10
2022-08-05T02:21:14.830Z,16.20
2022-08-05T02:23:43.953Z,16.20
2022-08-05T02:26:13.594Z,15.80
2022-08-05T02:28:44.584Z,16.10
2022-08-05T02:31:21.111Z,16.10
2022-08-05T02:33:57.634Z,15.90
2022-08-05T02:36:27.588Z,15.80
2022-08-05T02:38:55.642Z,15.90
2022-08-05T02:41:28.969Z,16.00
2022-08-05T02:44:12.193Z,15.60
2022-08-05T02:46:53.455Z,15.80
2022-08-05T02:49:36.576Z,15.60
2022-08-05T02:52:09.200Z,15.50
2022-08-05T02:54:37.668Z,15.40
2022-08-05T02:58:09.337Z,16.00
2022-08-05T02:59:57.800Z,14.70
2022-08-05T03:02:28.547Z,15.40
2022-08-05T03:04:56.603Z,15.40
2022-08-05T03:07:40.593Z,15.80
2022-08-05T03:10:10.525Z,15.40
2022-08-05T03:12:40.256Z,14.60
2022-08-05T03:15:09.334Z,15.60
2022-08-05T03:17:41.779Z,15.60
2022-08-05T03:20:09.201Z,15.60
2022-08-05T03:22:37.147Z,15.60
2022-08-05T03:25:11.688Z,15.50
2022-08-05T03:28:00.084Z,15.40
2022-08-05T03:30:30.306Z,15.60
2022-08-05T03:33:06.187Z,15.60
2022-08-05T03:35:41.746Z,15.40
2022-08-05T03:38:11.008Z,15.60
2022-08-05T03:40:41.413Z,15.70
2022-08-05T03:43:59.273Z,15.30
2022-08-05T03:45:59.329Z,15.80
2022-08-05T03:48:29.027Z,15.60
2022-08-05T03:52:37.321Z,15.50
2022-08-05T03:55:53.870Z,15.50
2022-08-05T03:57:02.353Z,15.60
2022-08-05T03:59:55.030Z,16.00
2022-08-05T04:02:39.193Z,15.80
2022-08-05T04:05:14.874Z,16.50
2022-08-05T04:07:57.760Z,16.90
2022-08-05T04:10:27.746Z,17.10
2022-08-05T04:12:55.431Z,17.50
2022-08-05T04:15:25.726Z,17.90
2022-08-05T04:17:57.119Z,18.10
2022-08-05T04:20:24.282Z,18.30
2022-08-05T04:22:50.973Z,18.40
2022-08-05T04:25:17.809Z,18.40
2022-08-05T04:27:58.064Z,18.50
2022-08-05T04:30:26.410Z,18.60
2022-08-05T04:32:53.554Z,18.90
2022-08-05T04:35:20.359Z,19.20
2022-08-05T04:38:02.452Z,19.10
2022-08-05T04:40:36.896Z,19.60
2022-08-05T04:43:04.065Z,19.40
2022-08-05T04:45:48.910Z,19.80
2022-08-05T04:48:27.273Z,20.00
2022-08-05T04:51:03.287Z,20.00
2022-08-05T04:53:38.795Z,20.50
2022-08-05T04:56:32.851Z,19.90
2022-08-05T04:58:53.909Z,20.10
2022-08-05T05:02:05.599Z,20.20
2022-08-05T05:04:07.401Z,20.10
2022-08-05T05:06:39.694Z,20.40
2022-08-05T05:09:20.446Z,20.30
2022-08-05T05:11:54.490Z,20.10
2022-08-05T05:14:28.023Z,20.40
2022-08-05T05:16:59.738Z,20.60
2022-08-05T05:19:36.507Z,20.70
2022-08-05T05:22:23.489Z,20.70
2022-08-05T05:24:57.277Z,20.80
2022-08-05T05:27:41.691Z,21.10
2022-08-05T05:30:29.113Z,21.40
2022-08-05T05:32:57.002Z,21.10
2022-08-05T05:35:29.131Z,21.30
2022-08-05T05:38:03.262Z,21.40
2022-08-05T05:40:32.416Z,20.90
2022-08-05T05:43:02.069Z,20.80
2022-08-05T05:45:29.327Z,21.10
2022-08-05T05:48:05.481Z,21.00
2022-08-05T05:50:32.739Z,21.30
2022-08-05T05:53:00.835Z,21.60
2022-08-05T05:55:52.126Z,21.50
2022-08-05T05:58:14.260Z,21.50
2022-08-05T06:00:40.951Z,21.90
2022-08-05T06:03:40.517Z,22.10
2022-08-05T06:06:00.038Z,21.80
2022-08-05T06:08:32.611Z,21.80
2022-08-05T06:11:00.185Z,22.00
2022-08-05T06:13:26.988Z,22.10
2022-08-05T06:16:28.285Z,22.10
2022-08-05T06:18:53.959Z,22.10
2022-08-05T06:21:20.755Z,22.50
2022-08-05T06:23:49.846Z,22.60
2022-08-05T06:26:21.231Z,22.70
2022-08-05T06:28:48.451Z,23.00
2022-08-05T06:31:18.285Z,23.40
2022-08-05T06:34:06.242Z,23.50
2022-08-05T06:36:53.698Z,23.70
2022-08-05T06:39:21.711Z,23.80
2022-08-05T06:41:49.624Z,23.80
2022-08-05T06:44:18.865Z,24.00
2022-08-05T06:46:50.885Z,24.00
2022-08-05T06:49:18.840Z,24.20
2022-08-05T06:51:48.448Z,24.00
2022-08-05T06:54:19.025Z,24.50
2022-08-05T06:56:54.994Z,24.60
2022-08-05T06:59:38.526Z,24.30
2022-08-05T07:02:08.965Z,25.50
2022-08-05T07:04:35.949Z,24.80
2022-08-05T07:07:03.525Z,24.70
2022-08-05T07:09:37.344Z,25.10
2022-08-05T07:12:07.863Z,25.30
2022-08-05T07:14:54.408Z,25.20
2022-08-05T07:17:58.471Z,25.20
2022-08-05T07:20:32.197Z,25.30
2022-08-05T07:22:54.836Z,25.50
2022-08-05T07:25:56.134Z,26.00
2022-08-05T07:28:11.712Z,26.00
2022-08-05T07:30:44.425Z,26.30
2022-08-05T07:33:17.419Z,26.50
2022-08-05T07:36:01.939Z,26.40
2022-08-05T07:38:35.359Z,26.50
2022-08-05T07:42:07.316Z,26.80
2022-08-05T07:43:59.623Z,27.10
2022-08-05T07:46:27.404Z,27.30
2022-08-05T07:49:02.529Z,27.50
2022-08-05T07:51:36.994Z,27.60
2022-08-05T07:54:08.409Z,27.90
2022-08-05T07:56:39.325Z,28.00
2022-08-05T07:59:39.037Z,28.20
2022-08-05T08:02:16.232Z,28.40
2022-08-05T08:04:47.710Z,28.90
2022-08-05T08:07:16.002Z,29.20
2022-08-05T08:09:44.487Z,29.20
2022-08-05T08:12:35.236Z,29.30
2022-08-05T08:15:02.567Z,28.90
2022-08-05T08:17:30.822Z,29.00
2022-08-05T08:20:21.382Z,29.00
2022-08-05T08:22:50.109Z,29.40
2022-08-05T08:25:18.225Z,29.60
2022-08-05T08:27:54.240Z,29.70
2022-08-05T08:30:32.821Z,29.60
2022-08-05T08:33:13.599Z,29.70
2022-08-05T08:35:53.790Z,29.90
2022-08-05T08:38:35.631Z,30.20
2022-08-05T08:41:08.573Z,30.10
2022-08-05T08:45:21.153Z,30.50
2022-08-05T08:46:26.314Z,30.40
2022-08-05T08:49:04.938Z,30.50
2022-08-05T08:52:05.779Z,30.30
2022-08-05T08:54:27.412Z,30.30
2022-08-05T08:56:54.320Z,30.10
2022-08-05T08:59:27.400Z,29.90
2022-08-05T09:02:00.945Z,29.90
2022-08-05T09:04:30.542Z,29.90
2022-08-05T09:06:57.836Z,30.10
2022-08-05T09:09:25.961Z,30.40
2022-08-05T09:12:19.798Z,30.80
2022-08-05T09:14:57.403Z,30.60
2022-08-05T09:17:42.899Z,30.70
2022-08-05T09:20:13.034Z,31.10
2022-08-05T09:23:07.513Z,31.30
2022-08-05T09:26:02.278Z,31.10
2022-08-05T09:28:32.477Z,31.30
2022-08-05T09:32:38.697Z,31.60
2022-08-05T09:33:59.485Z,30.70
2022-08-05T09:36:55.228Z,31.00
2022-08-05T09:39:39.196Z,31.10
2022-08-05T09:42:17.763Z,31.30
2022-08-05T09:44:52.557Z,31.60
2022-08-05T09:47:24.148Z,31.50
2022-08-05T09:50:02.094Z,31.90
2022-08-05T09:52:31.310Z,32.20
2022-08-05T09:55:55.070Z,31.80
2022-08-05T09:57:54.534Z,31.20
2022-08-05T10:00:26.408Z,31.00
2022-08-05T10:02:54.726Z,31.50
2022-08-05T10:05:26.734Z,32.10
2022-08-05T10:08:34.630Z,32.10
2022-08-05T10:10:44.150Z,32.00
2022-08-05T10:13:10.940Z,31.80
2022-08-05T10:15:41.656Z,32.10
2022-08-05T10:18:22.519Z,32.70
2022-08-05T10:20:51.240Z,32.40
2022-08-05T10:23:56.411Z,32.20
2022-08-05T10:26:15.115Z,31.90
2022-08-05T10:28:46.487Z,32.50
2022-08-05T10:32:48.473Z,32.60
2022-08-05T10:34:02.177Z,32.50
2022-08-05T10:36:29.655Z,32.40
2022-08-05T10:38:59.381Z,32.60
2022-08-05T10:41:45.200Z,32.80
2022-08-05T10:44:17.117Z,32.90
2022-08-05T10:46:45.225Z,33.30
2022-08-05T10:49:16.927Z,33.40
2022-08-05T10:51:48.650Z,33.50
2022-08-05T10:54:46.926Z,33.70
2022-08-05T10:57:26.242Z,33.80
2022-08-05T11:00:19.648Z,34.10
2022-08-05T11:02:58.986Z,34.00
2022-08-05T11:06:03.808Z,34.80
2022-08-05T11:08:39.401Z,34.10
2022-08-05T11:11:25.142Z,34.00
2022-08-05T11:14:11.401Z,33.50
2022-08-05T11:16:57.137Z,33.60
2022-08-05T11:20:16.459Z,33.60
2022-08-05T11:22:34.691Z,33.20
2022-08-05T11:26:04.963Z,33.30
2022-08-05T11:28:11.705Z,33.50
2022-08-05T11:30:58.322Z,33.30
2022-08-05T11:33:44.190Z,33.50
2022-08-05T11:36:16.960Z,33.70
2022-08-05T11:39:01.686Z,33.70
2022-08-05T11:41:54.709Z,33.30
2022-08-05T11:44:40.834Z,34.00
2022-08-05T11:47:11.148Z,34.80
2022-08-05T11:49:43.070Z,34.80
2022-08-05T11:52:11.941Z,35.00
2022-08-05T11:54:40.605Z,35.90
2022-08-05T11:57:24.859Z,36.80
2022-08-05T11:59:53.412Z,39.60
2022-08-05T12:02:31.751Z,41.00
2022-08-05T12:05:00.792Z,40.20
2022-08-05T12:08:07.584Z,41.60
2022-08-05T12:10:20.942Z,39.80
2022-08-05T12:12:58.371Z,40.00
2022-08-05T12:15:33.213Z,39.80
2022-08-05T12:18:10.975Z,41.70
2022-08-05T12:20:39.391Z,40.40
2022-08-05T12:23:08.058Z,38.20
2022-08-05T12:25:48.848Z,36.90
2022-08-05T12:28:30.954Z,35.90
2022-08-05T12:31:02.446Z,35.60
2022-08-05T12:33:36.486Z,35.60
2022-08-05T12:36:07.880Z,35.20
2022-08-05T12:38:41.610Z,31.70
2022-08-05T12:41:13.213Z,31.00
2022-08-05T12:43:57.572Z,31.80
2022-08-05T12:46:29.233Z,31.60
2022-08-05T12:49:15.574Z,33.20
2022-08-05T12:52:12.602Z,34.10
2022-08-05T12:54:36.713Z,34.60
2022-08-05T12:57:09.531Z,34.30
2022-08-05T13:00:08.703Z,33.60
2022-08-05T13:02:30.981Z,33.90
2022-08-05T13:04:57.852Z,34.30
2022-08-05T13:07:57.458Z,34.80
2022-08-05T13:10:19.556Z,35.10
2022-08-05T13:12:57.433Z,35.10
2022-08-05T13:15:41.829Z,35.20
2022-08-05T13:18:20.728Z,35.60
2022-08-05T13:20:49.305Z,37.40
2022-08-05T13:23:18.067Z,38.30
2022-08-05T13:25:51.651Z,37.50
2022-08-05T13:28:25.885Z,35.70
2022-08-05T13:30:53.348Z,35.50
2022-08-05T13:34:23.559Z,35.50
2022-08-05T13:36:09.306Z,34.00
2022-08-05T13:38:42.512Z,33.10
2022-08-05T13:41:12.934Z,34.20
2022-08-05T13:43:45.410Z,32.30
2022-08-05T13:47:01.897Z,30.80
2022-08-05T13:49:12.584Z,31.10
2022-08-05T13:51:41.584Z,30.60
2022-08-05T13:54:15.036Z,31.40
2022-08-05T13:56:45.389Z,32.90
2022-08-05T13:59:24.468Z,34.80
2022-08-05T14:02:00.055Z,33.40
2022-08-05T14:05:04.704Z,33.30
2022-08-05T14:07:59.995Z,29.80
2022-08-05T14:10:31.096Z,30.90
2022-08-05T14:12:58.383Z,31.90
2022-08-05T14:16:07.547Z,33.00
2022-08-05T14:18:15.142Z,30.60
2022-08-05T14:20:48.834Z,29.70
2022-08-05T14:23:24.076Z,30.10
2022-08-05T14:25:58.785Z,28.60
2022-08-05T14:28:30.090Z,29.50
2022-08-05T14:30:57.728Z,31.00
2022-08-05T14:33:24.589Z,29.40
2022-08-05T14:35:53.981Z,28.90
2022-08-05T14:38:32.683Z,29.10
2022-08-05T14:41:05.768Z,29.70
2022-08-05T14:43:59.570Z,28.10
2022-08-05T14:46:28.423Z,29.50
2022-08-05T14:48:57.831Z,30.80
2022-08-05T15:04:20.680Z,31.00
2022-08-05T15:06:52.251Z,32.10
2022-08-05T15:09:51.645Z,33.10
2022-08-05T15:12:06.758Z,34.60
2022-08-05T15:14:48.388Z,33.80
2022-08-05T15:17:46.058Z,33.80
2022-08-05T15:20:15.657Z,34.20
2022-08-05T15:22:45.507Z,33.90
2022-08-05T15:25:14.303Z,34.40
2022-08-05T15:27:42.672Z,34.50
2022-08-05T15:30:10.950Z,33.60
2022-08-05T15:32:40.961Z,34.00
2022-08-05T15:35:10.378Z,33.80
2022-08-05T15:38:33.291Z,34.20
2022-08-05T15:41:01.898Z,35.00
2022-08-05T15:43:20.051Z,34.70
2022-08-05T15:45:48.030Z,31.90
2022-08-05T15:48:28.297Z,29.80
2022-08-05T15:50:56.434Z,28.40
2022-08-05T15:53:26.486Z,28.90
2022-08-05T15:56:02.182Z,29.30
2022-08-05T15:58:35.401Z,29.50
2022-08-05T16:01:17.321Z,28.10
2022-08-05T16:03:45.404Z,28.00
2022-08-05T16:06:15.834Z,29.10
2022-08-05T16:08:47.763Z,30.10
2022-08-05T16:11:17.157Z,29.10
2022-08-05T16:13:44.118Z,29.30
2022-08-05T16:16:12.203Z,28.30
2022-08-05T16:18:51.951Z,27.70
2022-08-05T16:21:19.271Z,28.00
2022-08-05T16:23:53.717Z,29.80
2022-08-05T16:26:26.404Z,29.50
2022-08-05T16:28:54.395Z,28.30
2022-08-05T16:31:21.691Z,27.30
2022-08-05T16:33:49.013Z,27.70
2022-08-05T16:36:20.541Z,28.50
2022-08-05T16:38:54.842Z,29.50
2022-08-05T16:42:14.009Z,28.20
2022-08-05T16:44:09.546Z,27.10
2022-08-05T16:46:36.460Z,26.60
2022-08-05T16:49:09.082Z,27.10
2022-08-05T16:51:50.379Z,28.30
2022-08-05T16:54:23.984Z,27.50
2022-08-05T16:56:55.482Z,26.50
2022-08-05T16:59:22.818Z,26.50
2022-08-05T17:01:53.028Z,26.10
2022-08-05T17:04:23.708Z,27.20
2022-08-05T17:06:54.191Z,27.40
2022-08-05T17:09:21.179Z,27.00
2022-08-05T17:11:51.552Z,25.60
2022-08-05T17:14:22.313Z,25.50
2022-08-05T17:17:02.622Z,25.40
2022-08-05T17:19:29.432Z,25.40
2022-08-05T17:21:57.349Z,24.60
2022-08-05T17:24:34.950Z,24.00
2022-08-05T17:27:05.682Z,24.90
2022-08-05T17:29:34.110Z,25.10
2022-08-05T17:32:08.502Z,25.70
2022-08-05T17:34:38.475Z,26.60
2022-08-05T17:37:32.141Z,26.30
2022-08-05T17:39:55.753Z,26.00
2022-08-05T17:42:27.006Z,25.80
2022-08-05T17:44:56.765Z,25.60
2022-08-05T17:47:23.685Z,25.50
2022-08-05T17:50:00.350Z,25.60
2022-08-05T17:52:31.734Z,25.60
2022-08-05T17:54:58.426Z,25.60
2022-08-05T17:57:25.107Z,24.90
2022-08-05T18:00:03.425Z,24.90
2022-08-05T18:02:31.988Z,24.80
2022-08-05T18:05:03.709Z,25.10
2022-08-05T18:07:41.406Z,25.10
2022-08-05T18:10:10.928Z,24.70
2022-08-05T18:12:38.667Z,24.60
2022-08-05T18:15:06.190Z,24.80
2022-08-05T18:18:01.553Z,24.90
2022-08-05T18:20:47.002Z,24.80
2022-08-05T18:23:23.110Z,25.80
2022-08-05T18:25:57.871Z,26.20
2022-08-05T18:28:28.435Z,26.20
2022-08-05T18:30:57.660Z,25.80
2022-08-05T18:33:24.541Z,25.60
2022-08-05T18:36:03.805Z,25.60
2022-08-05T18:38:34.978Z,25.30
2022-08-05T18:41:53.859Z,25.20
2022-08-05T18:43:49.965Z,25.40
2022-08-05T18:46:20.081Z,25.50
2022-08-05T18:48:51.950Z,25.40
2022-08-05T18:52:05.668Z,25.30
2022-08-05T18:54:31.303Z,25.10
2022-08-05T18:57:01.888Z,24.80
2022-08-05T18:59:43.352Z,24.40
2022-08-05T19:02:26.766Z,24.60
2022-08-05T19:05:02.982Z,24.20
2022-08-05T19:07:46.498Z,22.80
2022-08-05T19:10:17.490Z,22.10
2022-08-05T19:12:46.144Z,22.30
2022-08-05T19:15:57.602Z,22.20
2022-08-05T19:18:09.064Z,22.20
2022-08-05T19:20:41.408Z,21.70
2022-08-05T19:33:16.679Z,21.20
2022-08-05T19:35:56.709Z,21.00
2022-08-05T19:38:24.585Z,21.20
2022-08-05T19:40:53.611Z,21.00
2022-08-05T19:43:31.318Z,21.00
2022-08-05T19:46:27.286Z,21.00
2022-08-05T19:48:53.896Z,21.00
2022-08-05T19:52:05.598Z,21.10
2022-08-05T19:54:25.628Z,21.20
2022-08-05T19:56:57.298Z,24.40
2022-08-05T19:59:56.372Z,24.00
2022-08-05T20:02:11.016Z,23.90
2022-08-05T20:04:37.776Z,24.00
2022-08-05T20:07:13.208Z,23.60
2022-08-05T20:09:53.669Z,23.40
2022-08-05T20:12:23.513Z,24.00
2022-08-05T20:14:52.500Z,23.20
2022-08-05T20:17:23.193Z,22.90
2022-08-05T20:19:51.021Z,22.50
2022-08-05T20:22:25.007Z,21.80
2022-08-05T20:24:54.679Z,21.80
2022-08-05T20:27:26.993Z,22.20
2022-08-05T20:29:58.168Z,22.10
2022-08-05T20:32:26.088Z,21.90
2022-08-05T20:34:52.896Z,22.10
2022-08-05T20:38:04.789Z,22.10
2022-08-05T20:40:07.013Z,21.90
2022-08-05T20:42:34.719Z,21.80
2022-08-05T20:45:05.464Z,21.70
2022-08-05T20:47:32.690Z,21.80
2022-08-05T20:50:02.201Z,21.70
2022-08-05T20:52:29.499Z,21.80
2022-08-05T20:55:55.377Z,21.60
2022-08-05T20:57:44.816Z,20.90
2022-08-05T21:00:35.078Z,20.90
2022-08-05T21:03:06.273Z,19.50
2022-08-05T21:05:48.113Z,20.40
2022-08-05T21:08:26.883Z,20.30
2022-08-05T21:11:11.906Z,20.20
2022-08-05T21:13:55.624Z,20.20
2022-08-05T21:16:29.556Z,20.10
2022-08-05T21:19:00.387Z,20.00
2022-08-05T21:21:39.206Z,20.30
2022-08-05T21:24:12.902Z,20.40
2022-08-05T21:26:41.200Z,20.50
2022-08-05T21:29:09.980Z,20.70
2022-08-05T21:31:41.617Z,20.50
2022-08-05T21:34:10.643Z,20.50
2022-08-05T21:36:38.271Z,20.80
2022-08-05T21:39:05.106Z,20.70
2022-08-05T21:41:35.490Z,20.70
2022-08-05T21:44:04.233Z,20.80
2022-08-05T21:46:32.138Z,21.00
2022-08-05T21:49:01.941Z,21.10
2022-08-05T21:52:22.826Z,21.10
2022-08-05T21:54:15.371Z,21.00
2022-08-05T21:56:44.675Z,21.50
2022-08-05T21:59:24.392Z,21.60
2022-08-05T22:01:54.512Z,21.50
2022-08-05T22:04:25.450Z,21.50
2022-08-05T22:06:52.617Z,21.40
2022-08-05T22:09:20.995Z,21.40
2022-08-05T22:11:48.406Z,21.30
2022-08-05T22:14:34.438Z,21.40
2022-08-05T22:17:04.957Z,21.40
2022-08-05T22:20:03.463Z,21.70
2022-08-05T22:22:27.209Z,22.30
2022-08-05T22:25:21.624Z,22.30
2022-08-05T22:28:08.219Z,22.00
2022-08-05T22:30:43.954Z,22.00
2022-08-05T22:33:55.479Z,22.10
2022-08-05T22:36:10.748Z,21.90
2022-08-05T22:38:42.742Z,22.30
2022-08-05T22:41:13.044Z,21.90
2022-08-05T22:43:41.963Z,21.70
2022-08-05T22:46:13.792Z,21.40
2022-08-05T22:48:50.713Z,21.90
2022-08-05T22:51:22.797Z,22.60
2022-08-05T22:53:50.724Z,22.80
2022-08-05T22:56:17.988Z,22.90
2022-08-05T22:58:57.880Z,23.20
2022-08-05T23:02:03.913Z,22.20
2022-08-05T23:04:13.636Z,22.10
2022-08-05T23:06:41.299Z,22.00
2022-08-05T23:09:26.799Z,21.80
2022-08-05T23:11:54.949Z,21.90
2022-08-05T23:14:22.615Z,21.80
2022-08-05T23:17:18.721Z,21.90
2022-08-05T23:19:56.245Z,22.20
2022-08-05T23:22:27.175Z,21.80
2022-08-05T23:24:54.874Z,21.50
2022-08-05T23:27:22.684Z,21.40
2022-08-05T23:29:50.801Z,21.40
2022-08-05T23:32:22.889Z,21.30
2022-08-05T23:34:49.886Z,21.10
2022-08-05T23:37:17.786Z,20.90
2022-08-05T23:39:53.667Z,21.10
2022-08-05T23:42:29.349Z,20.90
2022-08-05T23:44:57.250Z,20.80
2022-08-05T23:47:24.972Z,20.40
2022-08-05T23:49:55.781Z,21.10
2022-08-05T23:52:26.578Z,20.80
2022-08-05T23:54:58.277Z,21.40
2022-08-05T23:57:28.285Z,21.20
